Terminal Aerodrome Forecast
Issued by NWS

Home | Current Version | Previous Version | Text Only | Print | Product List | Glossary On
Versions: 1 2 3 4 5 6 7 8 9 10 11 12 13 14 15 16 17 18 19 20 21 22 23 24 25
792
FTUS43 KLSX 220531
TAFUIN
TAF
KUIN 220531Z 2206/2306 19005KT 1/4SM FG VV001
     FM221500 20009KT 4SM BR SCT010
     FM221800 20013KT P6SM SKC
     FM230000 22007KT P6SM SKC=

USA.gov is the U.S. government's official web portal to all federal, state and local government web resources and services.